Nearby METAR Reports

 

KDPA - Chicago/Dupage, Illinois, USA
Distance from station: ESE 9mi, 15km
Updated: Tue, 28-Jan-2020 2:52pm CST
Overcast
Overcast
 Wind from W
Wind: W 7 mph , 11 km/h
Temperature: 30°F , -1°C
Wind Chill: 23°F , -5°C
Dew Point: 25°F , -4°C
Humidity: 80%
Barometer: 30.07 inHg , 1018.3 hPa
Clouds: Overcast
Visibility: 10 miles , 16 km
Cloud details: Overcast 1600 ft
2020/01/28 20:52 KDPA 282052Z 27006KT 10SM OVC016 M01/M04 A3007 RMK AO2 SLP191 60000 T10111044 55001
KARR - Chicago/Aurora, Illinois, USA
Distance from station: SSW 14mi, 22km
Updated: Tue, 28-Jan-2020 2:52pm CST
Haze, Overcast
Haze, Overcast
 Wind from WNW
Wind: WNW 6 mph , 9 km/h
Temperature: 30°F , -1°C
Wind Chill: 24°F , -4°C
Dew Point: 25°F , -4°C
Humidity: 80%
Barometer: 30.08 inHg , 1018.6 hPa
Summary: Haze
Clouds: Overcast
Visibility: 6 miles , 10 km
Cloud details: Overcast 1600 ft
2020/01/28 20:52 KARR 282052Z 29005KT 6SM HZ OVC016 M01/M04 A3008 RMK AO2 SLP196 T10111039 53001
 
KDKB - De Kalb, Illinois, USA
Distance from station: W 14mi, 23km
Updated: Tue, 28-Jan-2020 3:35pm CST
Overcast
Overcast
 Wind from WNW
Wind: WNW 5 mph , 7 km/h
Temperature: 28°F , -2°C
Wind Chill: 22°F , -6°C
Dew Point: 25°F , -4°C
Humidity: 86%
Barometer: 30.09 inHg , 1019 hPa
Clouds: Overcast
Visibility: 7 miles , 11 km
Cloud details: Overcast 1400 ft
2020/01/28 21:35 KDKB 282135Z AUTO 30004KT 7SM OVC014 M02/M04 A3009 RMK AO2 T10201038
KORD - Chicago O'hare, Illinois, USA
Distance from station: E 25mi, 41km
Updated: Tue, 28-Jan-2020 2:51pm CST
Overcast
Overcast
 Wind from WSW
Wind: WSW 3 mph , 6 km/h
Temperature: 32°F , 0°C
Dew Point: 25°F , -4°C
Humidity: 75%
Barometer: 30.07 inHg , 1018.3 hPa
Clouds: Overcast
Visibility: 10 miles , 16 km
Cloud details: Overcast 1800 ft
2020/01/28 20:51 KORD 282051Z 25003KT 10SM OVC018 00/M04 A3007 RMK AO2 SLP191 60000 T00001044 55001
 
KPWK - Palwaukee, Illinois, USA
Distance from station: ENE 29mi, 47km
Updated: Tue, 28-Jan-2020 3:52pm CST
Overcast
Overcast
 Wind from NNW
Wind: NNW 5 mph , 7 km/h
Temperature: 32°F , 0°C
Wind Chill: 27°F , -3°C
Dew Point: 25°F , -4°C
Humidity: 75%
Barometer: 30.10 inHg , 1019.3 hPa
Clouds: Overcast
Visibility: 10 miles , 16 km
Cloud details: Overcast 1800 ft
2020/01/28 21:52 KPWK 282152Z 33004KT 10SM OVC018 00/M04 A3010 RMK AO2 SLP199 T00001044
KLOT - Romeoville/Chi, Illinois, USA
Distance from station: SE 30mi, 48km
Updated: Tue, 28-Jan-2020 3:35pm CST
Overcast
Overcast
 Wind from WNW
Wind: WNW 6 mph , 9 km/h
Temperature: 30°F , -1°C
Wind Chill: 24°F , -4°C
Dew Point: 27°F , -3°C
Humidity: 86%
Barometer: 30.10 inHg , 1019.3 hPa
Clouds: Overcast
Visibility: 7 miles , 11 km
Cloud details: Overcast 1700 ft
2020/01/28 21:35 KLOT 282135Z AUTO 29005KT 7SM OVC017 M01/M03 A3010 RMK AO2 T10081029
 
KJOT - Joliet, Illinois, USA
Distance from station: SSE 33mi, 53km
Updated: Tue, 28-Jan-2020 3:35pm CST
Overcast
Overcast
 Wind from WSW
Wind: WSW 5 mph , 7 km/h
Temperature: 32°F , 0°C
Wind Chill: 27°F , -3°C
Dew Point: 28°F , -2°C
Humidity: 87%
Barometer: 30.11 inHg , 1019.6 hPa
Clouds: Overcast
Visibility: 10 miles , 16 km
Cloud details: Overcast 1700 ft
2020/01/28 21:35 KJOT 282135Z AUTO 25004KT 10SM OVC017 00/M02 A3011 RMK AO2 T00011020
KRPJ - Rochelle/Koritz, Illinois, USA
Distance from station: W 34mi, 55km
Updated: Tue, 28-Jan-2020 3:35pm CST
Overcast
Overcast
 Wind from W
Wind: W 7 mph , 11 km/h
Temperature: 28°F , -2°C
Wind Chill: 21°F , -6°C
Dew Point: 25°F , -4°C
Humidity: 86%
Barometer: 30.10 inHg , 1019.3 hPa
Clouds: Overcast
Visibility: 10 miles , 16 km
Cloud details: Overcast 1300 ft
2020/01/28 21:35 KRPJ 282135Z AUTO 26006KT 10SM OVC013 M02/M04 A3010 RMK AO2 T10201037
 
KC09 - Morris-Washburn, Illinois, USA
Distance from station: S 36mi, 59km
Updated: Tue, 28-Jan-2020 3:35pm CST
Mist, Overcast
Mist, Overcast
 Wind from W
Wind: W 8 mph , 13 km/h
Temperature: 30°F , -1°C
Wind Chill: 22°F , -6°C
Dew Point: 30°F , -1°C
Humidity: 100%
Barometer: 30.10 inHg , 1019.3 hPa
Summary: Mist
Clouds: Overcast
Visibility: 3 miles , 5 km
Cloud details: Partly cloudy 700 ft
Overcast 1300 ft
2020/01/28 21:35 KC09 282135Z AUTO 28007KT 3SM BR SCT007 OVC013 M01/M01 A3010 RMK AO2 T10101012
KMDW - Chicago, Illinois, USA
Distance from station: ESE 37mi, 59km
Updated: Tue, 28-Jan-2020 3:53pm CST
Overcast
Overcast
 Wind from W
Wind: W 5 mph , 7 km/h
Temperature: 32°F , 0°C
Wind Chill: 27°F , -3°C
Dew Point: 25°F , -4°C
Humidity: 75%
Barometer: 30.10 inHg , 1019.3 hPa
Clouds: Overcast
Visibility: 10 miles , 16 km
Cloud details: Overcast 2000 ft
2020/01/28 21:53 KMDW 282153Z 27004KT 10SM OVC020 00/M04 A3010 RMK AO2 SLP203 T00001044
 
KRFD - Rockford, Illinois, USA
Distance from station: WNW 38mi, 62km
Updated: Tue, 28-Jan-2020 3:54pm CST
Overcast
Overcast
 Wind from WNW
Wind: WNW 5 mph , 7 km/h
Temperature: 30°F , -1°C
Wind Chill: 25°F , -4°C
Dew Point: 23°F , -5°C
Humidity: 75%
Barometer: 30.11 inHg , 1019.6 hPa
Clouds: Overcast
Visibility: 10 miles , 16 km
Cloud details: Overcast 1600 ft
2020/01/28 21:54 KRFD 282154Z 29004KT 10SM OVC016 M01/M05 A3011 RMK AO2 SLP205 T10111050
KUGN - Waukegan, Illinois, USA
Distance from station: NE 42mi, 68km
Updated: Tue, 28-Jan-2020 2:55pm CST
Overcast
Overcast
 Wind from NNW
Wind: NNW 3 mph , 6 km/h
Temperature: 30°F , -1°C
Dew Point: 21°F , -6°C
Humidity: 69%
Barometer: 30.07 inHg , 1018.3 hPa
Clouds: Overcast
Visibility: 10 miles , 16 km
Cloud details: Overcast 1900 ft
2020/01/28 20:55 KUGN 282055Z 33003KT 10SM OVC019 M01/M06 A3007 RMK AO2 SLP196 T10061056 53001
 
KBUU - Burlington, Wisconsin, USA
Distance from station: N 50mi, 81km
Updated: Tue, 28-Jan-2020 3:35pm CST
Overcast
Overcast
 Wind from calm
Wind: Calm
Temperature: 28°F , -2°C
Dew Point: 21°F , -6°C
Humidity: 74%
Barometer: 30.09 inHg , 1019 hPa
Clouds: Overcast
Visibility: 10 miles , 16 km
Cloud details: Overcast 2000 ft
2020/01/28 21:35 KBUU 282135Z AUTO 00000KT 10SM OVC020 M02/M06 A3009 RMK AO2 T10201059